sensor_id;sensor_type;location;lat;lon;timestamp;temperature;humidity
59128;DHT22;44912;52.754;5.994;2024-01-30T00:01:16;7.30;99.90
59128;DHT22;44912;52.754;5.994;2024-01-30T00:03:41;7.20;99.90
59128;DHT22;44912;52.754;5.994;2024-01-30T00:06:08;7.30;99.90
59128;DHT22;44912;52.754;5.994;2024-01-30T00:08:33;7.30;99.90
59128;DHT22;44912;52.754;5.994;2024-01-30T00:10:59;7.20;99.90
59128;DHT22;44912;52.754;5.994;2024-01-30T00:13:26;7.20;99.90
59128;DHT22;44912;52.754;5.994;2024-01-30T00:15:51;7.10;99.90
59128;DHT22;44912;52.754;5.994;2024-01-30T00:18:17;7.10;99.90
59128;DHT22;44912;52.754;5.994;2024-01-30T00:20:44;7.00;99.90
59128;DHT22;44912;52.754;5.994;2024-01-30T00:23:09;7.10;99.90
59128;DHT22;44912;52.754;5.994;2024-01-30T00:25:35;7.10;99.90
59128;DHT22;44912;52.754;5.994;2024-01-30T00:28:00;7.00;99.90
59128;DHT22;44912;52.754;5.994;2024-01-30T00:30:26;7.10;99.90
59128;DHT22;44912;52.754;5.994;2024-01-30T00:32:53;7.10;99.90
59128;DHT22;44912;52.754;5.994;2024-01-30T00:35:18;7.10;99.90
59128;DHT22;44912;52.754;5.994;2024-01-30T00:37:44;7.10;99.90
59128;DHT22;44912;52.754;5.994;2024-01-30T00:40:10;7.10;99.90
59128;DHT22;44912;52.754;5.994;2024-01-30T00:42:43;7.10;99.90
59128;DHT22;44912;52.754;5.994;2024-01-30T00:45:16;7.00;99.90
59128;DHT22;44912;52.754;5.994;2024-01-30T00:47:42;7.10;99.90
59128;DHT22;44912;52.754;5.994;2024-01-30T00:50:08;7.10;99.90
59128;DHT22;44912;52.754;5.994;2024-01-30T00:52:34;7.20;99.90
59128;DHT22;44912;52.754;5.994;2024-01-30T00:55:00;7.00;99.90
59128;DHT22;44912;52.754;5.994;2024-01-30T00:57:25;7.10;99.90
59128;DHT22;44912;52.754;5.994;2024-01-30T00:59:52;7.20;99.90
59128;DHT22;44912;52.754;5.994;2024-01-30T01:02:18;7.10;99.90
59128;DHT22;44912;52.754;5.994;2024-01-30T01:04:44;7.00;99.90
59128;DHT22;44912;52.754;5.994;2024-01-30T01:07:10;7.10;99.90
59128;DHT22;44912;52.754;5.994;2024-01-30T01:09:36;6.90;99.90
59128;DHT22;44912;52.754;5.994;2024-01-30T01:12:02;7.00;99.90
59128;DHT22;44912;52.754;5.994;2024-01-30T01:14:28;6.90;99.90
59128;DHT22;44912;52.754;5.994;2024-01-30T01:16:53;6.90;99.90
59128;DHT22;44912;52.754;5.994;2024-01-30T01:19:19;7.00;99.90
59128;DHT22;44912;52.754;5.994;2024-01-30T01:21:44;6.80;99.90
59128;DHT22;44912;52.754;5.994;2024-01-30T01:24:10;7.00;99.90
59128;DHT22;44912;52.754;5.994;2024-01-30T01:26:36;6.80;99.90
59128;DHT22;44912;52.754;5.994;2024-01-30T01:29:01;6.80;99.90
59128;DHT22;44912;52.754;5.994;2024-01-30T01:31:29;6.80;99.90
59128;DHT22;44912;52.754;5.994;2024-01-30T01:33:55;6.80;99.90
59128;DHT22;44912;52.754;5.994;2024-01-30T01:36:21;6.80;99.90
59128;DHT22;44912;52.754;5.994;2024-01-30T01:38:47;6.80;99.90
59128;DHT22;44912;52.754;5.994;2024-01-30T01:41:12;6.80;99.90
59128;DHT22;44912;52.754;5.994;2024-01-30T01:43:38;6.80;99.90
59128;DHT22;44912;52.754;5.994;2024-01-30T01:46:05;6.80;99.90
59128;DHT22;44912;52.754;5.994;2024-01-30T01:48:32;6.70;99.90
59128;DHT22;44912;52.754;5.994;2024-01-30T01:50:58;6.70;99.90
59128;DHT22;44912;52.754;5.994;2024-01-30T01:53:24;6.60;99.90
59128;DHT22;44912;52.754;5.994;2024-01-30T01:55:51;6.60;99.90
59128;DHT22;44912;52.754;5.994;2024-01-30T01:58:19;6.70;99.90
59128;DHT22;44912;52.754;5.994;2024-01-30T02:00:46;6.60;99.90
59128;DHT22;44912;52.754;5.994;2024-01-30T02:03:14;6.70;99.90
59128;DHT22;44912;52.754;5.994;2024-01-30T02:05:41;6.60;99.90
59128;DHT22;44912;52.754;5.994;2024-01-30T02:08:08;6.70;99.90
59128;DHT22;44912;52.754;5.994;2024-01-30T02:10:34;6.70;99.90
59128;DHT22;44912;52.754;5.994;2024-01-30T02:13:00;6.50;99.90
59128;DHT22;44912;52.754;5.994;2024-01-30T02:15:25;6.70;99.90
59128;DHT22;44912;52.754;5.994;2024-01-30T02:17:51;6.50;99.90
59128;DHT22;44912;52.754;5.994;2024-01-30T02:20:16;6.50;99.90
59128;DHT22;44912;52.754;5.994;2024-01-30T02:22:42;6.50;99.90
59128;DHT22;44912;52.754;5.994;2024-01-30T02:25:08;6.40;99.90
59128;DHT22;44912;52.754;5.994;2024-01-30T02:27:34;6.40;99.90
59128;DHT22;44912;52.754;5.994;2024-01-30T02:29:59;6.40;99.90
59128;DHT22;44912;52.754;5.994;2024-01-30T02:32:25;6.40;99.90
59128;DHT22;44912;52.754;5.994;2024-01-30T02:34:51;6.60;99.90
59128;DHT22;44912;52.754;5.994;2024-01-30T02:37:17;6.40;99.90
59128;DHT22;44912;52.754;5.994;2024-01-30T02:39:42;6.40;99.90
59128;DHT22;44912;52.754;5.994;2024-01-30T02:42:08;6.50;99.90
59128;DHT22;44912;52.754;5.994;2024-01-30T02:44:33;6.40;99.90
59128;DHT22;44912;52.754;5.994;2024-01-30T02:46:59;6.60;99.90
59128;DHT22;44912;52.754;5.994;2024-01-30T02:49:25;6.50;99.90
59128;DHT22;44912;52.754;5.994;2024-01-30T02:51:52;6.50;99.90
59128;DHT22;44912;52.754;5.994;2024-01-30T02:54:18;6.40;99.90
59128;DHT22;44912;52.754;5.994;2024-01-30T02:56:43;6.60;99.90
59128;DHT22;44912;52.754;5.994;2024-01-30T02:59:09;6.60;99.90
59128;DHT22;44912;52.754;5.994;2024-01-30T03:01:45;6.50;99.90
59128;DHT22;44912;52.754;5.994;2024-01-30T03:04:11;6.50;99.90
59128;DHT22;44912;52.754;5.994;2024-01-30T03:06:37;6.60;99.90
59128;DHT22;44912;52.754;5.994;2024-01-30T03:09:03;6.60;99.90
59128;DHT22;44912;52.754;5.994;2024-01-30T03:11:30;6.50;99.90
59128;DHT22;44912;52.754;5.994;2024-01-30T03:13:56;6.60;99.90
59128;DHT22;44912;52.754;5.994;2024-01-30T03:16:21;6.60;99.90
59128;DHT22;44912;52.754;5.994;2024-01-30T03:18:47;6.70;99.90
59128;DHT22;44912;52.754;5.994;2024-01-30T03:21:14;6.80;99.90
59128;DHT22;44912;52.754;5.994;2024-01-30T03:23:39;6.80;99.90
59128;DHT22;44912;52.754;5.994;2024-01-30T03:26:05;6.90;99.90
59128;DHT22;44912;52.754;5.994;2024-01-30T03:28:32;6.70;99.90
59128;DHT22;44912;52.754;5.994;2024-01-30T03:30:57;6.80;99.90
59128;DHT22;44912;52.754;5.994;2024-01-30T03:33:23;7.00;99.90
59128;DHT22;44912;52.754;5.994;2024-01-30T03:35:48;7.00;99.90
59128;DHT22;44912;52.754;5.994;2024-01-30T03:38:14;7.00;99.90
59128;DHT22;44912;52.754;5.994;2024-01-30T03:40:40;6.90;99.90
59128;DHT22;44912;52.754;5.994;2024-01-30T03:43:05;6.90;99.90
59128;DHT22;44912;52.754;5.994;2024-01-30T03:45:31;6.90;99.90
59128;DHT22;44912;52.754;5.994;2024-01-30T03:47:56;6.90;99.90
59128;DHT22;44912;52.754;5.994;2024-01-30T03:50:22;6.80;99.90
59128;DHT22;44912;52.754;5.994;2024-01-30T03:52:48;6.80;99.90
59128;DHT22;44912;52.754;5.994;2024-01-30T03:55:13;7.00;99.90
59128;DHT22;44912;52.754;5.994;2024-01-30T03:57:39;6.80;99.90
59128;DHT22;44912;52.754;5.994;2024-01-30T04:00:05;6.80;99.90
59128;DHT22;44912;52.754;5.994;2024-01-30T04:02:31;6.90;99.90
59128;DHT22;44912;52.754;5.994;2024-01-30T04:04:56;6.90;99.90
59128;DHT22;44912;52.754;5.994;2024-01-30T04:07:22;6.90;99.90
59128;DHT22;44912;52.754;5.994;2024-01-30T04:09:48;6.90;99.90
59128;DHT22;44912;52.754;5.994;2024-01-30T04:12:13;7.00;99.90
59128;DHT22;44912;52.754;5.994;2024-01-30T04:14:39;7.00;99.90
59128;DHT22;44912;52.754;5.994;2024-01-30T04:17:05;7.00;99.90
59128;DHT22;44912;52.754;5.994;2024-01-30T04:19:30;7.00;99.90
59128;DHT22;44912;52.754;5.994;2024-01-30T04:21:56;7.10;99.90
59128;DHT22;44912;52.754;5.994;2024-01-30T04:24:21;7.00;99.90
59128;DHT22;44912;52.754;5.994;2024-01-30T04:26:47;7.10;99.90
59128;DHT22;44912;52.754;5.994;2024-01-30T04:29:13;7.00;99.90
59128;DHT22;44912;52.754;5.994;2024-01-30T04:31:38;6.90;99.90
59128;DHT22;44912;52.754;5.994;2024-01-30T04:34:04;7.10;99.90
59128;DHT22;44912;52.754;5.994;2024-01-30T04:36:29;6.90;99.90
59128;DHT22;44912;52.754;5.994;2024-01-30T04:38:55;7.00;99.90
59128;DHT22;44912;52.754;5.994;2024-01-30T04:41:20;7.00;99.90
59128;DHT22;44912;52.754;5.994;2024-01-30T04:43:46;7.20;99.90
59128;DHT22;44912;52.754;5.994;2024-01-30T04:46:11;7.20;99.90
59128;DHT22;44912;52.754;5.994;2024-01-30T04:48:37;7.10;99.90
59128;DHT22;44912;52.754;5.994;2024-01-30T04:51:04;7.20;99.90
59128;DHT22;44912;52.754;5.994;2024-01-30T04:53:30;7.10;99.90
59128;DHT22;44912;52.754;5.994;2024-01-30T04:55:56;7.10;99.90
59128;DHT22;44912;52.754;5.994;2024-01-30T04:58:22;7.20;99.90
59128;DHT22;44912;52.754;5.994;2024-01-30T05:00:47;7.10;99.90
59128;DHT22;44912;52.754;5.994;2024-01-30T05:03:17;7.20;99.90
59128;DHT22;44912;52.754;5.994;2024-01-30T05:05:43;7.10;99.90
59128;DHT22;44912;52.754;5.994;2024-01-30T05:08:08;7.10;99.90
59128;DHT22;44912;52.754;5.994;2024-01-30T05:10:34;7.20;99.90
59128;DHT22;44912;52.754;5.994;2024-01-30T05:13:00;7.10;99.90
59128;DHT22;44912;52.754;5.994;2024-01-30T05:15:25;7.10;99.90
59128;DHT22;44912;52.754;5.994;2024-01-30T05:17:51;7.20;99.90
59128;DHT22;44912;52.754;5.994;2024-01-30T05:20:17;7.10;99.90
59128;DHT22;44912;52.754;5.994;2024-01-30T05:22:43;7.20;99.90
59128;DHT22;44912;52.754;5.994;2024-01-30T05:25:11;7.20;99.90
59128;DHT22;44912;52.754;5.994;2024-01-30T05:27:37;7.10;99.90
59128;DHT22;44912;52.754;5.994;2024-01-30T05:30:05;7.10;99.90
59128;DHT22;44912;52.754;5.994;2024-01-30T05:32:31;7.20;99.90
59128;DHT22;44912;52.754;5.994;2024-01-30T05:34:57;7.10;99.90
59128;DHT22;44912;52.754;5.994;2024-01-30T05:37:22;7.30;99.90
59128;DHT22;44912;52.754;5.994;2024-01-30T05:39:48;7.20;99.90
59128;DHT22;44912;52.754;5.994;2024-01-30T05:42:14;7.30;99.90
59128;DHT22;44912;52.754;5.994;2024-01-30T05:44:40;7.30;99.90
59128;DHT22;44912;52.754;5.994;2024-01-30T05:47:06;7.30;99.90
59128;DHT22;44912;52.754;5.994;2024-01-30T05:49:31;7.20;99.90
59128;DHT22;44912;52.754;5.994;2024-01-30T05:51:57;7.20;99.90
59128;DHT22;44912;52.754;5.994;2024-01-30T05:54:23;7.20;99.90
59128;DHT22;44912;52.754;5.994;2024-01-30T05:56:48;7.30;99.90
59128;DHT22;44912;52.754;5.994;2024-01-30T05:59:14;7.50;99.90
59128;DHT22;44912;52.754;5.994;2024-01-30T06:01:46;7.30;99.90
59128;DHT22;44912;52.754;5.994;2024-01-30T06:04:12;7.50;99.90
59128;DHT22;44912;52.754;5.994;2024-01-30T06:06:37;7.40;99.90
59128;DHT22;44912;52.754;5.994;2024-01-30T06:09:03;7.50;99.90
59128;DHT22;44912;52.754;5.994;2024-01-30T06:11:28;7.50;99.90
59128;DHT22;44912;52.754;5.994;2024-01-30T06:13:54;7.60;99.90
59128;DHT22;44912;52.754;5.994;2024-01-30T06:16:20;7.30;99.90
59128;DHT22;44912;52.754;5.994;2024-01-30T06:18:47;7.40;99.90
59128;DHT22;44912;52.754;5.994;2024-01-30T06:21:13;7.50;99.90
59128;DHT22;44912;52.754;5.994;2024-01-30T06:23:38;7.60;99.90
59128;DHT22;44912;52.754;5.994;2024-01-30T06:26:06;7.50;99.90
59128;DHT22;44912;52.754;5.994;2024-01-30T06:28:32;7.70;99.90
59128;DHT22;44912;52.754;5.994;2024-01-30T06:30:57;7.60;99.90
59128;DHT22;44912;52.754;5.994;2024-01-30T06:33:23;7.80;99.90
59128;DHT22;44912;52.754;5.994;2024-01-30T06:35:48;7.60;99.90
59128;DHT22;44912;52.754;5.994;2024-01-30T06:38:14;7.80;99.90
59128;DHT22;44912;52.754;5.994;2024-01-30T06:40:41;7.70;99.90
59128;DHT22;44912;52.754;5.994;2024-01-30T06:43:07;7.80;99.90
59128;DHT22;44912;52.754;5.994;2024-01-30T06:45:33;7.70;99.90
59128;DHT22;44912;52.754;5.994;2024-01-30T06:48:00;7.90;99.90
59128;DHT22;44912;52.754;5.994;2024-01-30T06:50:25;7.90;99.90
59128;DHT22;44912;52.754;5.994;2024-01-30T06:52:51;8.00;99.90
59128;DHT22;44912;52.754;5.994;2024-01-30T06:55:18;8.00;99.90
59128;DHT22;44912;52.754;5.994;2024-01-30T06:57:43;7.90;99.90
59128;DHT22;44912;52.754;5.994;2024-01-30T07:00:09;8.00;99.90
59128;DHT22;44912;52.754;5.994;2024-01-30T07:02:35;7.90;99.90
59128;DHT22;44912;52.754;5.994;2024-01-30T07:05:02;8.00;99.90
59128;DHT22;44912;52.754;5.994;2024-01-30T07:07:28;7.80;99.90
59128;DHT22;44912;52.754;5.994;2024-01-30T07:09:54;7.80;99.90
59128;DHT22;44912;52.754;5.994;2024-01-30T07:12:22;8.00;99.90
59128;DHT22;44912;52.754;5.994;2024-01-30T07:14:48;7.90;99.90
59128;DHT22;44912;52.754;5.994;2024-01-30T07:17:14;8.00;99.90
59128;DHT22;44912;52.754;5.994;2024-01-30T07:19:39;7.90;99.90
59128;DHT22;44912;52.754;5.994;2024-01-30T07:22:05;8.00;99.90
59128;DHT22;44912;52.754;5.994;2024-01-30T07:24:30;7.90;99.90
59128;DHT22;44912;52.754;5.994;2024-01-30T07:26:56;8.00;99.90
59128;DHT22;44912;52.754;5.994;2024-01-30T07:29:22;8.00;99.90
59128;DHT22;44912;52.754;5.994;2024-01-30T07:31:48;8.00;99.90
59128;DHT22;44912;52.754;5.994;2024-01-30T07:34:13;7.90;99.90
59128;DHT22;44912;52.754;5.994;2024-01-30T07:36:39;7.90;99.90
59128;DHT22;44912;52.754;5.994;2024-01-30T07:39:04;8.00;99.90
59128;DHT22;44912;52.754;5.994;2024-01-30T07:41:30;7.90;99.90
59128;DHT22;44912;52.754;5.994;2024-01-30T07:43:56;8.10;99.90
59128;DHT22;44912;52.754;5.994;2024-01-30T07:46:21;8.00;99.90
59128;DHT22;44912;52.754;5.994;2024-01-30T07:48:47;8.00;99.90
59128;DHT22;44912;52.754;5.994;2024-01-30T07:51:13;8.10;99.90
59128;DHT22;44912;52.754;5.994;2024-01-30T07:53:38;8.10;99.90
59128;DHT22;44912;52.754;5.994;2024-01-30T07:56:05;8.00;99.90
59128;DHT22;44912;52.754;5.994;2024-01-30T07:58:30;8.00;99.90
59128;DHT22;44912;52.754;5.994;2024-01-30T08:00:56;8.10;99.90
59128;DHT22;44912;52.754;5.994;2024-01-30T08:03:24;8.20;99.90
59128;DHT22;44912;52.754;5.994;2024-01-30T08:05:49;8.20;99.90
59128;DHT22;44912;52.754;5.994;2024-01-30T08:08:15;8.20;99.90
59128;DHT22;44912;52.754;5.994;2024-01-30T08:10:41;8.20;99.90
59128;DHT22;44912;52.754;5.994;2024-01-30T08:13:06;8.20;99.90
59128;DHT22;44912;52.754;5.994;2024-01-30T08:15:34;8.20;99.90
59128;DHT22;44912;52.754;5.994;2024-01-30T08:17:59;8.30;99.90
59128;DHT22;44912;52.754;5.994;2024-01-30T08:20:25;8.10;99.90
59128;DHT22;44912;52.754;5.994;2024-01-30T08:22:51;8.20;99.90
59128;DHT22;44912;52.754;5.994;2024-01-30T08:25:17;8.20;99.90
59128;DHT22;44912;52.754;5.994;2024-01-30T08:27:43;8.30;99.90
59128;DHT22;44912;52.754;5.994;2024-01-30T08:30:10;8.40;99.90
59128;DHT22;44912;52.754;5.994;2024-01-30T08:32:36;8.40;99.90
59128;DHT22;44912;52.754;5.994;2024-01-30T08:35:01;8.40;99.90
59128;DHT22;44912;52.754;5.994;2024-01-30T08:37:30;8.40;99.90
59128;DHT22;44912;52.754;5.994;2024-01-30T08:39:55;8.50;99.90
59128;DHT22;44912;52.754;5.994;2024-01-30T08:42:22;8.60;99.90
59128;DHT22;44912;52.754;5.994;2024-01-30T08:44:48;8.60;99.90
59128;DHT22;44912;52.754;5.994;2024-01-30T08:47:15;8.50;99.90
59128;DHT22;44912;52.754;5.994;2024-01-30T08:49:42;8.60;99.90
59128;DHT22;44912;52.754;5.994;2024-01-30T08:52:12;8.70;99.90
59128;DHT22;44912;52.754;5.994;2024-01-30T08:54:38;8.80;99.90
59128;DHT22;44912;52.754;5.994;2024-01-30T08:57:03;8.70;99.90
59128;DHT22;44912;52.754;5.994;2024-01-30T08:59:29;8.90;99.90
59128;DHT22;44912;52.754;5.994;2024-01-30T09:01:55;8.80;99.90
59128;DHT22;44912;52.754;5.994;2024-01-30T09:04:23;8.80;99.90
59128;DHT22;44912;52.754;5.994;2024-01-30T09:06:49;9.00;99.90
59128;DHT22;44912;52.754;5.994;2024-01-30T09:09:15;9.00;99.90
59128;DHT22;44912;52.754;5.994;2024-01-30T09:11:40;9.00;99.90
59128;DHT22;44912;52.754;5.994;2024-01-30T09:14:06;9.10;99.90
59128;DHT22;44912;52.754;5.994;2024-01-30T09:16:32;9.00;99.90
59128;DHT22;44912;52.754;5.994;2024-01-30T09:18:57;9.20;99.90
59128;DHT22;44912;52.754;5.994;2024-01-30T09:21:23;9.10;99.90
59128;DHT22;44912;52.754;5.994;2024-01-30T09:23:49;9.10;99.90
59128;DHT22;44912;52.754;5.994;2024-01-30T09:26:14;9.10;99.90
59128;DHT22;44912;52.754;5.994;2024-01-30T09:28:40;9.10;99.90
59128;DHT22;44912;52.754;5.994;2024-01-30T09:31:11;9.40;99.90
59128;DHT22;44912;52.754;5.994;2024-01-30T09:33:38;9.30;99.90
59128;DHT22;44912;52.754;5.994;2024-01-30T09:36:05;9.40;99.90
59128;DHT22;44912;52.754;5.994;2024-01-30T09:38:31;9.40;99.90
59128;DHT22;44912;52.754;5.994;2024-01-30T09:41:00;9.50;99.90
59128;DHT22;44912;52.754;5.994;2024-01-30T09:43:32;9.60;99.90
59128;DHT22;44912;52.754;5.994;2024-01-30T09:45:59;9.90;99.90
59128;DHT22;44912;52.754;5.994;2024-01-30T09:48:27;9.80;99.90
59128;DHT22;44912;52.754;5.994;2024-01-30T09:50:53;10.10;99.90
59128;DHT22;44912;52.754;5.994;2024-01-30T09:53:19;10.00;99.90
59128;DHT22;44912;52.754;5.994;2024-01-30T09:55:45;10.00;99.90
59128;DHT22;44912;52.754;5.994;2024-01-30T09:58:12;10.00;99.90
59128;DHT22;44912;52.754;5.994;2024-01-30T10:00:38;10.10;99.90
59128;DHT22;44912;52.754;5.994;2024-01-30T10:03:04;10.20;99.90
59128;DHT22;44912;52.754;5.994;2024-01-30T10:05:31;10.10;99.90
59128;DHT22;44912;52.754;5.994;2024-01-30T10:07:59;10.30;99.90
59128;DHT22;44912;52.754;5.994;2024-01-30T10:10:25;10.30;99.90
59128;DHT22;44912;52.754;5.994;2024-01-30T10:12:51;10.40;99.90
59128;DHT22;44912;52.754;5.994;2024-01-30T10:15:17;10.40;99.90
59128;DHT22;44912;52.754;5.994;2024-01-30T10:17:45;10.50;99.90
59128;DHT22;44912;52.754;5.994;2024-01-30T10:20:11;10.50;99.90
59128;DHT22;44912;52.754;5.994;2024-01-30T10:22:37;10.60;99.90
59128;DHT22;44912;52.754;5.994;2024-01-30T10:25:02;10.70;99.90
59128;DHT22;44912;52.754;5.994;2024-01-30T10:27:29;10.60;99.90
59128;DHT22;44912;52.754;5.994;2024-01-30T10:29:55;10.70;99.90
59128;DHT22;44912;52.754;5.994;2024-01-30T10:32:21;10.70;99.90
59128;DHT22;44912;52.754;5.994;2024-01-30T10:34:47;10.80;99.90
59128;DHT22;44912;52.754;5.994;2024-01-30T10:37:12;10.70;99.90
59128;DHT22;44912;52.754;5.994;2024-01-30T10:39:42;10.80;99.90
59128;DHT22;44912;52.754;5.994;2024-01-30T10:42:13;10.70;99.90
59128;DHT22;44912;52.754;5.994;2024-01-30T10:45:07;10.80;99.90
59128;DHT22;44912;52.754;5.994;2024-01-30T10:47:34;10.90;99.90
59128;DHT22;44912;52.754;5.994;2024-01-30T10:50:02;10.80;99.90
59128;DHT22;44912;52.754;5.994;2024-01-30T10:52:29;10.70;99.90
59128;DHT22;44912;52.754;5.994;2024-01-30T10:54:55;11.00;99.90
59128;DHT22;44912;52.754;5.994;2024-01-30T10:57:26;10.90;99.90
59128;DHT22;44912;52.754;5.994;2024-01-30T11:00:00;10.80;99.90
59128;DHT22;44912;52.754;5.994;2024-01-30T11:02:27;10.80;99.90
59128;DHT22;44912;52.754;5.994;2024-01-30T11:04:58;10.80;99.90
59128;DHT22;44912;52.754;5.994;2024-01-30T11:07:26;10.80;99.90
59128;DHT22;44912;52.754;5.994;2024-01-30T11:09:54;10.90;99.90
59128;DHT22;44912;52.754;5.994;2024-01-30T11:12:29;11.00;99.90
59128;DHT22;44912;52.754;5.994;2024-01-30T11:15:07;10.90;99.90
59128;DHT22;44912;52.754;5.994;2024-01-30T11:20:31;10.80;99.90
59128;DHT22;44912;52.754;5.994;2024-01-30T11:22:58;10.70;99.90
59128;DHT22;44912;52.754;5.994;2024-01-30T11:25:24;10.50;99.90
59128;DHT22;44912;52.754;5.994;2024-01-30T11:27:52;10.50;99.90
59128;DHT22;44912;52.754;5.994;2024-01-30T11:30:26;10.40;99.90
59128;DHT22;44912;52.754;5.994;2024-01-30T11:33:08;10.40;99.90
59128;DHT22;44912;52.754;5.994;2024-01-30T11:35:41;10.30;99.90
59128;DHT22;44912;52.754;5.994;2024-01-30T11:38:09;10.10;99.90
59128;DHT22;44912;52.754;5.994;2024-01-30T11:40:37;10.20;99.90
59128;DHT22;44912;52.754;5.994;2024-01-30T11:43:04;10.10;99.90
59128;DHT22;44912;52.754;5.994;2024-01-30T11:45:31;10.00;99.90
59128;DHT22;44912;52.754;5.994;2024-01-30T11:47:58;10.10;99.90
59128;DHT22;44912;52.754;5.994;2024-01-30T11:50:25;10.00;99.90
59128;DHT22;44912;52.754;5.994;2024-01-30T11:52:51;10.00;99.90
59128;DHT22;44912;52.754;5.994;2024-01-30T11:55:17;9.90;99.90
59128;DHT22;44912;52.754;5.994;2024-01-30T11:57:43;9.90;99.90
59128;DHT22;44912;52.754;5.994;2024-01-30T12:00:18;10.00;99.90
59128;DHT22;44912;52.754;5.994;2024-01-30T12:02:49;10.10;99.90
59128;DHT22;44912;52.754;5.994;2024-01-30T12:05:15;9.90;99.90
59128;DHT22;44912;52.754;5.994;2024-01-30T12:07:44;10.00;99.90
59128;DHT22;44912;52.754;5.994;2024-01-30T12:10:10;10.10;99.90
59128;DHT22;44912;52.754;5.994;2024-01-30T12:12:36;10.10;99.90
59128;DHT22;44912;52.754;5.994;2024-01-30T12:15:02;10.10;99.90
59128;DHT22;44912;52.754;5.994;2024-01-30T12:17:34;10.10;99.90
59128;DHT22;44912;52.754;5.994;2024-01-30T12:20:11;10.10;99.90
59128;DHT22;44912;52.754;5.994;2024-01-30T12:25:17;10.00;99.90
59128;DHT22;44912;52.754;5.994;2024-01-30T12:27:45;9.90;99.90
59128;DHT22;44912;52.754;5.994;2024-01-30T12:30:12;10.00;99.90
59128;DHT22;44912;52.754;5.994;2024-01-30T12:32:43;9.90;99.90
59128;DHT22;44912;52.754;5.994;2024-01-30T12:35:10;10.10;99.90
59128;DHT22;44912;52.754;5.994;2024-01-30T12:37:36;10.00;99.90
59128;DHT22;44912;52.754;5.994;2024-01-30T12:40:03;9.80;99.90
59128;DHT22;44912;52.754;5.994;2024-01-30T12:42:29;9.70;99.90
59128;DHT22;44912;52.754;5.994;2024-01-30T12:44:57;9.50;99.90
59128;DHT22;44912;52.754;5.994;2024-01-30T12:47:24;9.40;99.90
59128;DHT22;44912;52.754;5.994;2024-01-30T12:49:50;9.30;99.90
59128;DHT22;44912;52.754;5.994;2024-01-30T12:52:19;9.50;99.90
59128;DHT22;44912;52.754;5.994;2024-01-30T12:54:45;9.50;99.90
59128;DHT22;44912;52.754;5.994;2024-01-30T12:57:11;9.50;99.90
59128;DHT22;44912;52.754;5.994;2024-01-30T12:59:37;9.60;99.90
59128;DHT22;44912;52.754;5.994;2024-01-30T13:02:03;9.60;99.90
59128;DHT22;44912;52.754;5.994;2024-01-30T13:04:29;9.60;99.90
59128;DHT22;44912;52.754;5.994;2024-01-30T13:06:55;9.60;99.90
59128;DHT22;44912;52.754;5.994;2024-01-30T13:09:22;9.80;99.90
59128;DHT22;44912;52.754;5.994;2024-01-30T13:11:49;9.80;99.90
59128;DHT22;44912;52.754;5.994;2024-01-30T13:14:15;9.90;99.90
59128;DHT22;44912;52.754;5.994;2024-01-30T13:16:40;9.90;99.90
59128;DHT22;44912;52.754;5.994;2024-01-30T13:19:06;9.90;99.90
59128;DHT22;44912;52.754;5.994;2024-01-30T13:21:32;9.90;99.90
59128;DHT22;44912;52.754;5.994;2024-01-30T13:23:57;9.90;99.90
59128;DHT22;44912;52.754;5.994;2024-01-30T13:26:23;9.90;99.90
59128;DHT22;44912;52.754;5.994;2024-01-30T13:28:48;10.00;99.90
59128;DHT22;44912;52.754;5.994;2024-01-30T13:31:15;9.90;99.90
59128;DHT22;44912;52.754;5.994;2024-01-30T13:33:41;10.00;99.90
59128;DHT22;44912;52.754;5.994;2024-01-30T13:36:07;9.90;99.90
59128;DHT22;44912;52.754;5.994;2024-01-30T13:38:33;9.80;99.90
59128;DHT22;44912;52.754;5.994;2024-01-30T13:41:00;9.70;99.90
59128;DHT22;44912;52.754;5.994;2024-01-30T13:43:26;9.70;99.90
59128;DHT22;44912;52.754;5.994;2024-01-30T13:45:51;9.60;99.90
59128;DHT22;44912;52.754;5.994;2024-01-30T13:48:17;9.60;99.90
59128;DHT22;44912;52.754;5.994;2024-01-30T13:50:43;9.50;99.90
59128;DHT22;44912;52.754;5.994;2024-01-30T13:53:08;9.50;99.90
59128;DHT22;44912;52.754;5.994;2024-01-30T13:55:34;9.50;99.90
59128;DHT22;44912;52.754;5.994;2024-01-30T13:58:00;9.60;99.90
59128;DHT22;44912;52.754;5.994;2024-01-30T14:00:27;9.40;99.90
59128;DHT22;44912;52.754;5.994;2024-01-30T14:02:53;9.50;99.90
59128;DHT22;44912;52.754;5.994;2024-01-30T14:05:22;9.50;99.90
59128;DHT22;44912;52.754;5.994;2024-01-30T14:07:48;9.50;99.90
59128;DHT22;44912;52.754;5.994;2024-01-30T14:10:15;9.40;99.90
59128;DHT22;44912;52.754;5.994;2024-01-30T14:12:42;9.40;99.90
59128;DHT22;44912;52.754;5.994;2024-01-30T14:15:09;9.40;99.90
59128;DHT22;44912;52.754;5.994;2024-01-30T14:17:35;9.30;99.90
59128;DHT22;44912;52.754;5.994;2024-01-30T14:20:02;9.20;99.90
59128;DHT22;44912;52.754;5.994;2024-01-30T14:22:29;9.40;99.90
59128;DHT22;44912;52.754;5.994;2024-01-30T14:24:55;9.50;99.90
59128;DHT22;44912;52.754;5.994;2024-01-30T14:27:21;9.20;99.90
59128;DHT22;44912;52.754;5.994;2024-01-30T14:29:47;9.30;99.90
59128;DHT22;44912;52.754;5.994;2024-01-30T14:32:13;9.20;99.90
59128;DHT22;44912;52.754;5.994;2024-01-30T14:34:38;9.10;99.90
59128;DHT22;44912;52.754;5.994;2024-01-30T14:37:04;9.20;99.90
59128;DHT22;44912;52.754;5.994;2024-01-30T14:39:30;9.00;99.90
59128;DHT22;44912;52.754;5.994;2024-01-30T14:41:56;9.00;99.90
59128;DHT22;44912;52.754;5.994;2024-01-30T14:44:21;9.10;99.90
59128;DHT22;44912;52.754;5.994;2024-01-30T14:46:48;9.00;99.90
59128;DHT22;44912;52.754;5.994;2024-01-30T14:49:14;8.90;99.90
59128;DHT22;44912;52.754;5.994;2024-01-30T14:51:41;9.00;99.90
59128;DHT22;44912;52.754;5.994;2024-01-30T14:54:06;8.90;99.90
59128;DHT22;44912;52.754;5.994;2024-01-30T14:56:32;8.90;99.90
59128;DHT22;44912;52.754;5.994;2024-01-30T14:58:58;9.00;99.90
59128;DHT22;44912;52.754;5.994;2024-01-30T15:01:24;8.90;99.90
59128;DHT22;44912;52.754;5.994;2024-01-30T15:03:49;8.90;99.90
59128;DHT22;44912;52.754;5.994;2024-01-30T15:06:17;8.80;99.90
59128;DHT22;44912;52.754;5.994;2024-01-30T15:08:43;8.70;99.90
59128;DHT22;44912;52.754;5.994;2024-01-30T15:11:10;8.90;99.90
59128;DHT22;44912;52.754;5.994;2024-01-30T15:13:35;8.70;99.90
59128;DHT22;44912;52.754;5.994;2024-01-30T15:16:02;8.70;99.90
59128;DHT22;44912;52.754;5.994;2024-01-30T15:18:28;8.90;99.90
59128;DHT22;44912;52.754;5.994;2024-01-30T15:20:54;8.90;99.90
59128;DHT22;44912;52.754;5.994;2024-01-30T15:23:19;8.60;99.90
59128;DHT22;44912;52.754;5.994;2024-01-30T15:25:45;8.80;99.90
59128;DHT22;44912;52.754;5.994;2024-01-30T15:28:11;8.60;99.90
59128;DHT22;44912;52.754;5.994;2024-01-30T15:30:36;8.60;99.90
59128;DHT22;44912;52.754;5.994;2024-01-30T15:33:02;8.70;99.90
59128;DHT22;44912;52.754;5.994;2024-01-30T15:35:27;8.50;99.90
59128;DHT22;44912;52.754;5.994;2024-01-30T15:37:54;8.60;99.90
59128;DHT22;44912;52.754;5.994;2024-01-30T15:40:20;8.40;99.90
59128;DHT22;44912;52.754;5.994;2024-01-30T15:42:46;8.40;99.90